Terminal Aerodrome Forecast
Issued by NWS Cleveland, OH

Home | Current Version | Previous Version | Graphics & Text | Print | Product List | Glossary On
Versions: 1 2 3 4 5 6 7 8 9 10 11 12 13 14 15 16 17 18 19 20 21 22 23 24
000
FTUS41 KCLE 190200 AAA
TAFCLE
TAF AMD
KCLE 190244Z 1903/2006 26008KT 5SM -SN OVC019
      TEMPO 1903/1905 -FZDZ SCT009 OVC015
     FM190500 32006KT 6SM -SN OVC015
      TEMPO 1906/1910 3SM -SN
     FM191300 32006KT P6SM OVC012
     FM192100 32006KT P6SM OVC018
     FM200000 30005KT P6SM BKN020=

USA.gov is the U.S. government's official web portal to all federal, state and local government web resources and services.